AirNav   TITAN Aviation Fuels
 
 1458 users online  

1L4 Kidwell Airport
Cal Nev Ari, Nevada, USA

GOING TO CAL NEV ARI?


FAA INFORMATION EFFECTIVE 11 AUGUST 2022

Location

FAA Identifier: 1L4
Lat/Long: 35-18-19.9780N 114-52-57.9100W
35-18.332967N 114-52.965167W
35.3055494,-114.8827528
(estimated)
Elevation: 2605 ft. / 794 m (estimated)
Variation: 14E (1985)
Time zone: UTC -7 (UTC -8 during Standard Time)
Zip code: 89039

Airport Operations

Airport use: Open to the public
Control tower: no
ARTCC: LOS ANGELES CENTER
FSS: RENO FLIGHT SERVICE STATION
NOTAMs facility: RNO (NOTAM-D service available)
Attendance: CONTINUOUS
Wind indicator: yes
Segmented circle: no
Lights: SS-SR

Airport Communications

CTAF: 122.9
WX AWOS-3PT at IFP (18 nm SE): 119.825 (928-754-4462)

Nearby radio navigation aids

VOR radial/distance  VOR name  Freq  Var
GFSr039/17.8GOFFS VORTAC114.4015E
EEDr313/38.1NEEDLES VORTAC115.2015E

Airport Services

Parking: tiedowns

Runway Information

Runway 15/33

Dimensions: 4140 x 65 ft. / 1262 x 20 m
APRX 5100 FT WITH UNMKD 500 FT DTHRS.
Surface: sand, in fair condition
PACKED SAND & GRVL; EDGES & ENDS SOFT SAND IN DRY CONDS; EDGES BURMED WITH 4 - 12 IN SOIL; +5 FT BRUSH IN RWY SAFETY AREA & UP TO EDGES.
Runway edge lights: non-standard
NSTD LIRL; THR LGTS 6 GREEN LGTS.
Operational restrictions: PAT TFC USE CTN: 80 FT UNLGT POLE 500 FT E OF RWY 33 THR PENETRATES TRSN AREA; 7:1 OCS TO RWY ALG HWY.
RUNWAY 15  RUNWAY 33
Traffic pattern: leftleft
Markings: none, in fair conditionnone, in fair condition
Obstructions: 5 ft. fence, 10 ft. from runway, 2:1 slope to clear15 ft. road, 560 ft. from runway, 37:1 slope to clear

Airport Ownership and Management from official FAA records

Ownership: Privately-owned
Owner: KIDWELL AIRPORT LLC
PO BOX 566
CAL-NEV-ARI, NV 89039
Phone 714-299-5669
Manager: MILNE POCOCK
19 COMANCHE WAY, PO BOX 519
CAL-NEV-ARI, NV 89039
Phone 928-460-3987
JERRY TYLER 661-978-4234.

Airport Operational Statistics

Aircraft based on the field: 14
Single engine airplanes: 13
Ultralights: 1
    
Aircraft operations: avg 76/week *
55% local general aviation
45% transient general aviation
* for 12-month period ending 30 September 2021

Additional Remarks

A30A-15 +70 FT TWR 350 FT L OF CNTRLN ADJ TO THR.
RESIDENTIAL AIRPARK.
WEST TWY NOT MNTND; LRG ROCKS & 6 FT BRUSH ON EDGES; USE AT YOUR OWN RISK.
ULTRALIGHT ACTVT ON & INVOF ARPT.
FOR CD CTC LOS ANGELES ARTCC AT 661-575-2079.
CTN: AUTOMOBILE TFC ON RWY.

Instrument Procedures

There are no published instrument procedures at 1L4.

Some nearby airports with instrument procedures:

KIFP - Laughlin/Bullhead International Airport (18 nm SE)
KEED - Needles Airport (35 nm S)
KBVU - Boulder City Municipal Airport (39 nm N)
KHND - Henderson Executive Airport (42 nm N)
KIGM - Kingman Airport (46 nm E)
 
Loc | Ops | Rwys | IFR | FBO | Links
Com | Nav | Svcs | Stats | Notes
Area around 1L4 (Kidwell Airport)
 
Road maps at: MapQuest Bing Google
 
Aerial photo
WARNING: Photo may not be current or correct
Aerial photo of 1L4 (Kidwell Airport)
Photo by Megan Artz
Photo taken 25-Oct-2008
on final approach to runway 33

Do you have a better or more recent aerial photo of Kidwell Airport that you would like to share? If so, please send us your photo.

 
Sectional chart

 
Airport distance calculator
Flying to Kidwell Airport? Find the distance to fly.

From to 1L4

Sunrise and sunset
Times for 18-Aug-2022
 Local
(UTC-7)
 Zulu
(UTC)
Morning civil twilight05:3612:36
Sunrise06:0213:02
Sunset19:2402:24
Evening civil twilight19:5102:51

Current date and time
Zulu (UTC)  18-Aug-2022 13:44:07
Local (UTC-7)  18-Aug-2022 06:44:07
 
METAR
KIFP 
30nm SE 
181335Z AUTO 21004KT 10SM CLR 30/19 A2985 RMK AO2
KEED 
35nm S 
181256Z AUTO 00000KT 10SM CLR 29/23 A2985 RMK AO2 SLP075 T02890228
KBVU 
39nm N 
181335Z AUTO 05004KT 28/18 A2995 RMK AO2 PWINO TSNO
KHND 
42nm N 
181256Z 18005KT 10SM FEW120 27/18 A2997 RMK AO2 SLP135 T02670183
KIGM 
47nm E 
181251Z AUTO 07009KT 10SM OVC110 23/19 A3006 RMK AO2 LTG DSNT E RAE06 SLP106 P0000 T02280194
KLAS 
48nm N 
181256Z 36006KT 10SM SCT130 BKN200 31/15 A2993 RMK AO2 SLP105 ACC OHD AND ALQDS T03060150
TAF
KIFP 
30nm SE 
181120Z 1812/1912 VRB06KT P6SM SCT120 SCT150 FM182200 24008KT P6SM VCTS SCT120CB BKN150 TEMPO 1822/1901 VRB20G30KT P6SM BKN120CB FM190300 19006KT P6SM SCT120 BKN200
KEED 
35nm S 
181120Z 1812/1912 VRB06KT P6SM SCT120 SCT150 FM182200 18008KT P6SM VCTS SCT120CB BKN150 TEMPO 1822/1824 VRB20G30KT P6SM BKN120CB FM190300 29007KT P6SM SCT120 BKN200
NOTAMs
Click for the latest NOTAMs
NOTAMs are issued by the DoD/FAA and will open in a separate window not controlled by AirNav.

 

 
 

Would you like to see your business listed on this page?

 If your business provides an interesting product or service to pilots, flight crews, aircraft, or users of the Kidwell Airport, you should consider listing it here.  To start the listing process, click on the button below
 
Add a business
 

Other Pages about Kidwell Airport

rentor.com/...
 
Update a link
 
Copyright © AirNav, LLC. All rights reserved. Privacy Policy  Contact